Time;durP1;ratioP1;P1;durP2;ratioP2;P2;SDS_P1;SDS_P2;PMS_P1;PMS_P2;Temp;Humidity;BMP_temperature;BMP_pressure;BME280_temperature;BME280_humidity;BME280_pressure;Samples;Min_cycle;Max_cycle;Signal;HPM_P1;HPM_P2
2022/06/09 00:01:22;;;;;;;;;;;25.00;46.50;;;;;;1548681;75;710;-69
2022/06/09 00:03:25;;;;;;;;;;;25.00;46.50;;;;;;1546050;75;2145;-69
2022/06/09 00:05:28;;;;;;;;;;;24.90;46.50;;;;;;1552576;75;1120;-68
2022/06/09 00:07:30;;;;;;;;;;;25.00;46.40;;;;;;1545991;75;789;-70
2022/06/09 00:09:36;;;;;;;;;;;25.00;46.40;;;;;;1572483;75;1472;-69
2022/06/09 00:11:39;;;;;;;;;;;24.90;46.50;;;;;;1563814;75;785;-71
2022/06/09 00:13:41;;;;;;;;;;;25.00;46.50;;;;;;1546070;75;737;-67
2022/06/09 00:15:43;;;;;;;;;;;24.90;46.50;;;;;;1551044;75;1176;-69
2022/06/09 00:17:45;;;;;;;;;;;25.00;46.60;;;;;;1550859;75;697;-68
2022/06/09 00:19:47;;;;;;;;;;;25.00;46.70;;;;;;1557853;75;726;-70
2022/06/09 00:21:49;;;;;;;;;;;25.00;46.60;;;;;;1550678;75;684;-70
2022/06/09 00:23:51;;;;;;;;;;;25.00;46.70;;;;;;1562074;75;1940;-70
2022/06/09 00:25:53;;;;;;;;;;;24.90;46.60;;;;;;1560233;76;729;-68
2022/06/09 00:27:55;;;;;;;;;;;24.90;46.70;;;;;;1551059;75;708;-69
2022/06/09 00:29:56;;;;;;;;;;;24.90;46.60;;;;;;1548799;75;721;-70
2022/06/09 00:31:58;;;;;;;;;;;25.00;46.70;;;;;;1560830;75;778;-69
2022/06/09 00:34:00;;;;;;;;;;;25.00;46.60;;;;;;1556075;75;1110;-70
2022/06/09 00:36:02;;;;;;;;;;;25.00;46.60;;;;;;1548588;75;822;-71
2022/06/09 00:38:04;;;;;;;;;;;25.00;46.70;;;;;;1567282;75;1466;-70
2022/06/09 00:40:07;;;;;;;;;;;25.00;46.70;;;;;;1564873;75;813;-69
2022/06/09 00:42:09;;;;;;;;;;;25.00;46.60;;;;;;1550736;75;654;-70
2022/06/09 00:44:16;;;;;;;;;;;25.00;46.60;;;;;;1550304;72;2071;-67
2022/06/09 00:46:22;;;;;;;;;;;25.00;46.60;;;;;;1559898;75;701;-71
2022/06/09 00:48:26;;;;;;;;;;;25.00;46.60;;;;;;1560905;75;788;-72
2022/06/09 00:50:27;;;;;;;;;;;24.90;46.60;;;;;;1552070;75;696;-71
2022/06/09 00:52:30;;;;;;;;;;;25.00;46.60;;;;;;1563403;75;1526;-72
2022/06/09 00:54:33;;;;;;;;;;;24.90;46.70;;;;;;1563859;74;1226;-71
2022/06/09 00:56:36;;;;;;;;;;;25.00;46.70;;;;;;1563373;75;949;-72
2022/06/09 00:58:38;;;;;;;;;;;24.90;46.80;;;;;;1565101;75;747;-72
2022/06/09 01:00:54;;;;;;;;;;;24.90;46.80;;;;;;1550033;75;655;-72
2022/06/09 01:02:56;;;;;;;;;;;25.00;46.80;;;;;;1548310;75;1925;-71
2022/06/09 01:04:58;;;;;;;;;;;25.00;46.80;;;;;;1551541;75;1140;-70
2022/06/09 01:07:04;;;;;;;;;;;25.00;46.70;;;;;;1535300;76;1437;-71
2022/06/09 01:09:11;;;;;;;;;;;24.90;46.70;;;;;;1527820;77;760;-71
2022/06/09 01:11:12;;;;;;;;;;;25.00;46.60;;;;;;1520137;77;778;-71
2022/06/09 01:13:14;;;;;;;;;;;24.90;46.60;;;;;;1545114;75;766;-70
2022/06/09 01:15:21;;;;;;;;;;;25.00;46.60;;;;;;1541313;75;1198;-69
2022/06/09 01:17:29;;;;;;;;;;;25.00;46.60;;;;;;1552810;75;736;-70
2022/06/09 01:19:40;;;;;;;;;;;24.90;46.50;;;;;;1552882;75;1712;-70
2022/06/09 01:21:50;;;;;;;;;;;25.00;46.50;;;;;;1556974;75;754;-70
2022/06/09 01:23:56;;;;;;;;;;;25.00;46.50;;;;;;1566779;75;1933;-71
2022/06/09 01:26:18;;;;;;;;;;;24.90;46.50;;;;;;1562903;75;1049;-70
2022/06/09 01:28:36;;;;;;;;;;;24.90;46.50;;;;;;1544593;75;777;-70
2022/06/09 01:30:52;;;;;;;;;;;24.90;46.60;;;;;;1562720;75;688;-70
2022/06/09 01:32:55;;;;;;;;;;;25.00;46.50;;;;;;1549973;75;810;-71
2022/06/09 01:35:15;;;;;;;;;;;24.90;46.50;;;;;;1562609;75;1586;-71
2022/06/09 01:37:20;;;;;;;;;;;24.90;46.50;;;;;;1557232;75;755;-71
2022/06/09 01:39:30;;;;;;;;;;;24.80;46.50;;;;;;1548669;75;711;-71
2022/06/09 01:41:31;;;;;;;;;;;24.90;46.60;;;;;;1550614;75;717;-71
2022/06/09 01:43:33;;;;;;;;;;;24.90;46.50;;;;;;1561857;75;1936;-71
2022/06/09 01:45:40;;;;;;;;;;;24.90;46.50;;;;;;1569136;75;1137;-72
2022/06/09 01:48:00;;;;;;;;;;;24.90;46.60;;;;;;1559703;75;1911;-71
2022/06/09 01:50:03;;;;;;;;;;;25.00;46.60;;;;;;1555261;75;766;-71
2022/06/09 01:52:05;;;;;;;;;;;24.90;46.60;;;;;;1563105;75;758;-71
2022/06/09 01:54:07;;;;;;;;;;;24.90;46.70;;;;;;1555328;75;1156;-71
2022/06/09 01:56:10;;;;;;;;;;;25.00;46.70;;;;;;1558946;75;732;-70
2022/06/09 01:58:12;;;;;;;;;;;25.00;46.60;;;;;;1544517;75;588;-71
2022/06/09 02:00:15;;;;;;;;;;;24.90;46.60;;;;;;1566280;75;819;-71
2022/06/09 02:02:18;;;;;;;;;;;25.00;46.60;;;;;;1563381;75;1599;-71
2022/06/09 02:04:22;;;;;;;;;;;24.90;46.70;;;;;;1558380;75;1926;-72
2022/06/09 02:06:24;;;;;;;;;;;25.00;46.60;;;;;;1545192;75;731;-72
2022/06/09 02:08:26;;;;;;;;;;;24.90;46.60;;;;;;1559355;75;726;-72
2022/06/09 02:10:29;;;;;;;;;;;24.90;46.70;;;;;;1550355;75;794;-72
2022/06/09 02:12:31;;;;;;;;;;;24.90;46.60;;;;;;1546251;75;741;-72
2022/06/09 02:14:33;;;;;;;;;;;25.00;46.70;;;;;;1562749;75;1165;-72
2022/06/09 02:16:35;;;;;;;;;;;25.00;46.60;;;;;;1551415;75;1315;-72
2022/06/09 02:18:38;;;;;;;;;;;24.90;46.50;;;;;;1562052;75;695;-72
2022/06/09 02:20:42;;;;;;;;;;;25.00;46.60;;;;;;1544387;75;769;-72
2022/06/09 02:22:44;;;;;;;;;;;24.90;46.50;;;;;;1556392;75;696;-72
2022/06/09 02:24:46;;;;;;;;;;;25.00;46.60;;;;;;1550589;75;1941;-72
2022/06/09 02:26:48;;;;;;;;;;;24.90;46.50;;;;;;1569215;75;706;-71
2022/06/09 02:28:49;;;;;;;;;;;25.00;46.60;;;;;;1554394;75;743;-72
2022/06/09 02:30:51;;;;;;;;;;;25.00;46.60;;;;;;1551336;75;1658;-74
2022/06/09 02:32:53;;;;;;;;;;;25.00;46.70;;;;;;1549256;75;813;-74
2022/06/09 02:34:55;;;;;;;;;;;25.00;46.60;;;;;;1549936;75;1135;-74
2022/06/09 02:36:57;;;;;;;;;;;25.00;46.70;;;;;;1561863;75;733;-73
2022/06/09 02:38:59;;;;;;;;;;;25.00;46.70;;;;;;1564152;75;767;-73
2022/06/09 02:41:01;;;;;;;;;;;24.90;46.70;;;;;;1555473;75;785;-72
2022/06/09 02:43:03;;;;;;;;;;;25.00;46.60;;;;;;1550780;75;721;-72
2022/06/09 02:45:06;;;;;;;;;;;25.00;46.70;;;;;;1567021;73;1958;-70
2022/06/09 02:47:08;;;;;;;;;;;25.00;46.70;;;;;;1562800;75;786;-71
2022/06/09 02:49:10;;;;;;;;;;;24.90;46.80;;;;;;1566551;75;777;-71
2022/06/09 02:51:20;;;;;;;;;;;25.00;46.80;;;;;;1573260;75;709;-71
2022/06/09 02:53:22;;;;;;;;;;;25.00;46.80;;;;;;1563666;75;709;-70
2022/06/09 02:55:24;;;;;;;;;;;25.00;46.80;;;;;;1559233;75;1168;-71
2022/06/09 02:57:26;;;;;;;;;;;25.00;46.80;;;;;;1563217;75;754;-70
2022/06/09 02:59:27;;;;;;;;;;;25.00;46.80;;;;;;1562818;75;1479;-71
2022/06/09 03:01:29;;;;;;;;;;;24.90;46.80;;;;;;1563758;75;786;-72
2022/06/09 03:03:31;;;;;;;;;;;24.90;46.90;;;;;;1559432;75;768;-72
2022/06/09 03:05:35;;;;;;;;;;;25.00;46.90;;;;;;1551756;75;1929;-71
2022/06/09 03:07:37;;;;;;;;;;;24.90;46.90;;;;;;1573727;75;687;-71
2022/06/09 03:09:39;;;;;;;;;;;24.90;46.80;;;;;;1547608;75;735;-71
2022/06/09 03:11:41;;;;;;;;;;;24.90;46.80;;;;;;1551833;75;1537;-70
2022/06/09 03:13:43;;;;;;;;;;;25.00;46.80;;;;;;1551424;75;816;-72
2022/06/09 03:15:47;;;;;;;;;;;25.00;46.70;;;;;;1556121;75;1109;-73
2022/06/09 03:17:50;;;;;;;;;;;25.00;46.80;;;;;;1552748;75;722;-73
2022/06/09 03:19:51;;;;;;;;;;;25.00;46.60;;;;;;1574274;75;720;-73
2022/06/09 03:21:53;;;;;;;;;;;25.00;46.60;;;;;;1567460;75;760;-73
2022/06/09 03:23:57;;;;;;;;;;;24.90;46.80;;;;;;1562203;75;1928;-73
2022/06/09 03:25:59;;;;;;;;;;;25.00;46.80;;;;;;1561923;75;1506;-76
2022/06/09 03:28:01;;;;;;;;;;;24.80;46.60;;;;;;1564508;75;761;-73
2022/06/09 03:30:03;;;;;;;;;;;24.90;46.70;;;;;;1558817;75;760;-73
2022/06/09 03:32:05;;;;;;;;;;;24.80;46.70;;;;;;1559146;75;811;-74
2022/06/09 03:34:07;;;;;;;;;;;24.90;46.80;;;;;;1560983;75;1144;-73
2022/06/09 03:36:10;;;;;;;;;;;24.90;46.80;;;;;;1558433;75;727;-73
2022/06/09 03:38:12;;;;;;;;;;;24.90;46.80;;;;;;1560006;75;700;-76
2022/06/09 03:40:14;;;;;;;;;;;24.90;46.80;;;;;;1557546;75;1545;-75
2022/06/09 03:42:16;;;;;;;;;;;24.90;46.80;;;;;;1550537;75;688;-75
2022/06/09 03:44:18;;;;;;;;;;;24.90;46.90;;;;;;1557517;75;1930;-75
2022/06/09 03:46:20;;;;;;;;;;;24.80;46.80;;;;;;1565367;75;783;-75
2022/06/09 03:48:22;;;;;;;;;;;24.80;46.70;;;;;;1556326;75;686;-75
2022/06/09 03:50:24;;;;;;;;;;;24.80;46.70;;;;;;1567028;75;706;-75
2022/06/09 03:52:26;;;;;;;;;;;24.80;46.70;;;;;;1558679;75;786;-75
2022/06/09 03:54:28;;;;;;;;;;;24.80;46.70;;;;;;1563790;75;1536;-74
2022/06/09 03:56:30;;;;;;;;;;;24.80;46.70;;;;;;1514884;77;770;-76
2022/06/09 03:58:32;;;;;;;;;;;24.80;46.70;;;;;;1508994;77;767;-75
2022/06/09 04:00:34;;;;;;;;;;;24.80;46.70;;;;;;1543014;75;793;-75
2022/06/09 04:02:36;;;;;;;;;;;24.80;46.60;;;;;;1513749;77;715;-77
2022/06/09 04:04:37;;;;;;;;;;;24.80;46.60;;;;;;1539904;75;1931;-76
2022/06/09 04:06:39;;;;;;;;;;;24.70;46.60;;;;;;1517552;77;792;-74
2022/06/09 04:08:41;;;;;;;;;;;24.80;46.60;;;;;;1516387;77;1548;-75
2022/06/09 04:10:43;;;;;;;;;;;24.80;46.70;;;;;;1550826;76;745;-75
2022/06/09 04:12:45;;;;;;;;;;;24.80;46.70;;;;;;1562617;75;759;-74
2022/06/09 04:14:47;;;;;;;;;;;24.70;46.70;;;;;;1533351;75;1156;-76
2022/06/09 04:16:49;;;;;;;;;;;24.70;46.70;;;;;;1534100;76;770;-76
2022/06/09 04:18:51;;;;;;;;;;;24.70;46.70;;;;;;1549777;75;793;-76
2022/06/09 04:20:53;;;;;;;;;;;24.70;46.70;;;;;;1549301;75;771;-76
2022/06/09 04:22:55;;;;;;;;;;;24.70;46.70;;;;;;1531467;76;1542;-73
2022/06/09 04:24:57;;;;;;;;;;;24.70;46.60;;;;;;1533877;77;1971;-74
2022/06/09 04:26:59;;;;;;;;;;;24.70;46.60;;;;;;1569320;74;740;-73
2022/06/09 04:29:01;;;;;;;;;;;24.70;46.60;;;;;;1578554;74;721;-75
2022/06/09 04:31:03;;;;;;;;;;;24.70;46.70;;;;;;1566036;75;788;-73
2022/06/09 04:33:05;;;;;;;;;;;24.70;46.70;;;;;;1567229;75;750;-74
2022/06/09 04:35:07;;;;;;;;;;;24.60;46.50;;;;;;1557333;74;1146;-72
2022/06/09 04:37:09;;;;;;;;;;;24.60;46.50;;;;;;1552888;75;1541;-72
2022/06/09 04:39:11;;;;;;;;;;;24.70;46.70;;;;;;1571503;74;824;-74
2022/06/09 04:41:13;;;;;;;;;;;24.70;46.70;;;;;;1572415;74;779;-74
2022/06/09 04:43:15;;;;;;;;;;;24.60;46.50;;;;;;1570309;74;735;-71
2022/06/09 04:45:17;;;;;;;;;;;24.70;46.60;;;;;;1572319;74;1944;-72
2022/06/09 04:47:19;;;;;;;;;;;24.70;46.60;;;;;;1570493;75;884;-73
2022/06/09 04:49:20;;;;;;;;;;;24.60;46.50;;;;;;1569673;74;755;-72
2022/06/09 04:51:23;;;;;;;;;;;24.60;46.50;;;;;;1567052;75;1456;-75
2022/06/09 04:53:24;;;;;;;;;;;24.60;46.50;;;;;;1570815;75;756;-74
2022/06/09 04:55:26;;;;;;;;;;;24.70;46.70;;;;;;1562026;74;1127;-75
2022/06/09 04:57:28;;;;;;;;;;;24.60;46.60;;;;;;1569015;75;710;-73
2022/06/09 04:59:30;;;;;;;;;;;24.60;46.50;;;;;;1569084;74;716;-74
2022/06/09 05:01:32;;;;;;;;;;;24.60;46.50;;;;;;1564117;74;743;-74
2022/06/09 05:03:34;;;;;;;;;;;24.60;46.60;;;;;;1568281;74;836;-74
2022/06/09 05:05:36;;;;;;;;;;;24.60;46.60;;;;;;1560838;74;1934;-74
2022/06/09 05:07:38;;;;;;;;;;;24.60;46.50;;;;;;1574245;74;749;-74
2022/06/09 05:09:40;;;;;;;;;;;24.60;46.60;;;;;;1554144;75;794;-72
2022/06/09 05:11:42;;;;;;;;;;;24.70;46.70;;;;;;1567301;74;711;-74
2022/06/09 05:13:44;;;;;;;;;;;24.70;46.60;;;;;;1571830;75;769;-72
2022/06/09 05:15:50;;;;;;;;;;;24.60;46.50;;;;;;1570472;74;1121;-72
2022/06/09 05:17:52;;;;;;;;;;;24.60;46.50;;;;;;1566058;75;727;-69
2022/06/09 05:19:54;;;;;;;;;;;24.60;46.40;;;;;;1569672;74;1481;-69
2022/06/09 05:21:56;;;;;;;;;;;24.60;46.40;;;;;;1569708;75;781;-70
2022/06/09 05:23:58;;;;;;;;;;;24.60;46.40;;;;;;1567257;75;712;-69
2022/06/09 05:26:00;;;;;;;;;;;24.60;46.40;;;;;;1570302;74;1954;-72
2022/06/09 05:28:02;;;;;;;;;;;24.60;46.30;;;;;;1569436;75;725;-66
2022/06/09 05:30:04;;;;;;;;;;;24.60;46.40;;;;;;1567364;75;857;-66
2022/06/09 05:32:06;;;;;;;;;;;24.60;46.50;;;;;;1571890;74;734;-66
2022/06/09 05:34:09;;;;;;;;;;;24.60;46.40;;;;;;1572506;74;1720;-66
2022/06/09 05:36:11;;;;;;;;;;;24.60;46.40;;;;;;1570096;74;699;-66
2022/06/09 05:45:14;;;;;;;;;;;24.70;46.30;;;;;;1494505;75;1939;-65
2022/06/09 05:47:19;;;;;;;;;;;24.70;46.40;;;;;;1570202;75;1607;-66
2022/06/09 05:49:19;;;;;;;;;;;24.80;46.30;;;;;;1576505;74;1197;-65
2022/06/09 05:51:21;;;;;;;;;;;24.80;46.20;;;;;;1574913;74;814;-66
2022/06/09 05:53:23;;;;;;;;;;;24.70;46.10;;;;;;1573684;74;746;-66
2022/06/09 05:55:25;;;;;;;;;;;24.70;46.30;;;;;;1562254;73;1180;-66
2022/06/09 05:57:27;;;;;;;;;;;24.70;46.20;;;;;;1566061;74;781;-65
2022/06/09 05:59:29;;;;;;;;;;;24.70;46.20;;;;;;1569031;75;836;-66
2022/06/09 06:01:30;;;;;;;;;;;24.70;46.20;;;;;;1572604;75;1549;-66
2022/06/09 06:03:32;;;;;;;;;;;24.70;46.20;;;;;;1575186;74;789;-66
2022/06/09 06:07:54;;;;;;;;;;;24.60;46.10;;;;;;1569578;74;1644;-66
2022/06/09 06:09:56;;;;;;;;;;;24.60;46.20;;;;;;1572523;75;773;-66
2022/06/09 06:11:58;;;;;;;;;;;24.60;46.20;;;;;;1569051;75;731;-65
2022/06/09 06:14:00;;;;;;;;;;;24.60;46.10;;;;;;1572071;74;808;-65
2022/06/09 06:16:02;;;;;;;;;;;24.50;46.10;;;;;;1569714;74;1677;-66
2022/06/09 06:18:04;;;;;;;;;;;24.50;46.10;;;;;;1570817;74;770;-66
2022/06/09 06:20:06;;;;;;;;;;;24.50;46.10;;;;;;1570212;75;818;-66
2022/06/09 06:22:08;;;;;;;;;;;24.50;46.00;;;;;;1572411;74;756;-67
2022/06/09 06:24:10;;;;;;;;;;;24.50;46.10;;;;;;1572475;74;1195;-66
2022/06/09 06:26:12;;;;;;;;;;;24.50;46.00;;;;;;1567896;74;1922;-67
2022/06/09 06:28:14;;;;;;;;;;;24.50;46.00;;;;;;1580984;74;812;-66
2022/06/09 06:30:15;;;;;;;;;;;24.50;46.00;;;;;;1573925;74;1539;-66
2022/06/09 06:32:17;;;;;;;;;;;24.50;46.00;;;;;;1575827;74;716;-66
2022/06/09 06:34:19;;;;;;;;;;;24.40;45.90;;;;;;1572781;74;1150;-66
2022/06/09 06:36:21;;;;;;;;;;;24.50;46.00;;;;;;1577245;74;800;-66
2022/06/09 06:38:23;;;;;;;;;;;24.40;45.90;;;;;;1570226;74;780;-66
2022/06/09 06:40:25;;;;;;;;;;;24.50;46.00;;;;;;1566712;74;784;-66
2022/06/09 06:42:27;;;;;;;;;;;24.40;45.80;;;;;;1575466;74;785;-66
2022/06/09 06:44:48;;;;;;;;;;;24.40;45.80;;;;;;1573695;74;1673;-68
2022/06/09 06:46:50;;;;;;;;;;;24.40;45.80;;;;;;1538376;75;1930;-69
2022/06/09 06:48:53;;;;;;;;;;;24.40;45.80;;;;;;1539583;75;746;-67
2022/06/09 06:50:55;;;;;;;;;;;24.40;45.80;;;;;;1536984;75;671;-68
2022/06/09 06:52:57;;;;;;;;;;;24.40;45.80;;;;;;1541505;75;701;-65
2022/06/09 06:54:59;;;;;;;;;;;24.40;45.70;;;;;;1541426;75;1187;-66
2022/06/09 06:57:05;;;;;;;;;;;24.40;45.70;;;;;;1523833;77;1573;-66
2022/06/09 06:59:04;;;;;;;;;;;24.40;45.70;;;;;;1519217;77;1091;-66
2022/06/09 07:01:06;;;;;;;;;;;24.40;45.70;;;;;;1526552;77;652;-66
2022/06/09 07:03:08;;;;;;;;;;;24.40;45.60;;;;;;1520172;77;781;-66
2022/06/09 07:05:10;;;;;;;;;;;24.40;45.60;;;;;;1515566;77;1954;-65
2022/06/09 07:07:12;;;;;;;;;;;24.40;45.60;;;;;;1514488;77;659;-67
2022/06/09 07:09:14;;;;;;;;;;;24.30;45.60;;;;;;1519480;77;787;-66
2022/06/09 07:11:15;;;;;;;;;;;24.30;45.50;;;;;;1522796;77;1340;-67
2022/06/09 07:13:17;;;;;;;;;;;24.40;45.60;;;;;;1524010;77;747;-66
2022/06/09 07:15:19;;;;;;;;;;;24.40;45.50;;;;;;1518529;77;1147;-67
2022/06/09 07:17:21;;;;;;;;;;;24.40;45.50;;;;;;1505472;77;728;-67
2022/06/09 07:19:23;;;;;;;;;;;24.30;45.50;;;;;;1516943;77;800;-66
2022/06/09 07:21:25;;;;;;;;;;;24.40;45.50;;;;;;1509719;77;632;-69
2022/06/09 07:23:27;;;;;;;;;;;24.30;45.50;;;;;;1513218;77;805;-67
2022/06/09 07:25:29;;;;;;;;;;;24.40;45.50;;;;;;1510822;77;1957;-68
2022/06/09 07:27:31;;;;;;;;;;;24.40;45.50;;;;;;1511845;77;619;-68
2022/06/09 07:29:33;;;;;;;;;;;24.30;45.40;;;;;;1518337;77;809;-67
2022/06/09 07:31:35;;;;;;;;;;;24.40;45.40;;;;;;1521713;77;805;-68
2022/06/09 07:33:37;;;;;;;;;;;24.30;45.40;;;;;;1514928;77;598;-64
2022/06/09 07:35:39;;;;;;;;;;;24.40;45.40;;;;;;1521187;77;1139;-68
2022/06/09 07:37:41;;;;;;;;;;;24.30;45.40;;;;;;1514061;77;737;-64
2022/06/09 07:39:43;;;;;;;;;;;24.30;45.30;;;;;;1528937;77;1467;-63
2022/06/09 07:41:45;;;;;;;;;;;24.30;45.40;;;;;;1520732;77;590;-68
2022/06/09 07:43:50;;;;;;;;;;;24.30;45.30;;;;;;1522522;77;826;-68
2022/06/09 07:45:52;;;;;;;;;;;24.30;45.30;;;;;;1518450;77;1959;-68
2022/06/09 07:47:54;;;;;;;;;;;24.30;45.30;;;;;;1518218;77;705;-68
2022/06/09 07:49:56;;;;;;;;;;;24.30;45.30;;;;;;1510779;77;695;-66
2022/06/09 07:51:59;;;;;;;;;;;24.30;45.30;;;;;;1514648;77;666;-67
2022/06/09 07:54:00;;;;;;;;;;;24.30;45.40;;;;;;1514666;77;1441;-67
2022/06/09 07:56:02;;;;;;;;;;;24.30;45.30;;;;;;1520992;77;1151;-69
2022/06/09 07:58:04;;;;;;;;;;;24.30;45.30;;;;;;1525568;77;783;-68
2022/06/09 08:00:07;;;;;;;;;;;24.30;45.30;;;;;;1508559;77;737;-68
2022/06/09 08:02:10;;;;;;;;;;;24.30;45.30;;;;;;1516801;77;822;-68
2022/06/09 08:04:12;;;;;;;;;;;24.30;45.30;;;;;;1519986;77;789;-70
2022/06/09 08:06:14;;;;;;;;;;;24.30;45.30;;;;;;1524244;77;1940;-68
2022/06/09 08:08:16;;;;;;;;;;;24.30;45.30;;;;;;1516503;77;1502;-67
2022/06/09 08:10:20;;;;;;;;;;;24.30;45.30;;;;;;1524938;77;763;-69
2022/06/09 08:12:22;;;;;;;;;;;24.30;45.30;;;;;;1508738;77;797;-70
2022/06/09 08:14:24;;;;;;;;;;;24.30;45.30;;;;;;1511426;77;720;-68
2022/06/09 08:16:26;;;;;;;;;;;24.30;45.30;;;;;;1520948;77;1116;-68
2022/06/09 08:18:28;;;;;;;;;;;24.30;45.30;;;;;;1514966;77;855;-69
2022/06/09 08:20:31;;;;;;;;;;;24.30;45.30;;;;;;1508990;77;699;-69
2022/06/09 08:22:33;;;;;;;;;;;24.30;45.30;;;;;;1510190;77;1539;-68
2022/06/09 08:24:35;;;;;;;;;;;24.30;45.30;;;;;;1518204;77;1188;-66
2022/06/09 08:26:37;;;;;;;;;;;24.30;45.30;;;;;;1510079;77;1918;-68
2022/06/09 08:28:38;;;;;;;;;;;24.30;45.30;;;;;;1516105;77;738;-68
2022/06/09 08:30:40;;;;;;;;;;;24.30;45.30;;;;;;1514313;77;579;-67
2022/06/09 08:32:42;;;;;;;;;;;24.30;45.30;;;;;;1506078;77;656;-68
2022/06/09 08:34:44;;;;;;;;;;;24.30;45.30;;;;;;1506947;77;1145;-67
2022/06/09 08:36:46;;;;;;;;;;;24.30;45.30;;;;;;1513347;77;1453;-68
2022/06/09 08:38:48;;;;;;;;;;;24.30;45.30;;;;;;1510613;77;780;-69
2022/06/09 08:40:54;;;;;;;;;;;24.30;45.30;;;;;;1511526;77;763;-68
2022/06/09 08:43:04;;;;;;;;;;;24.30;45.20;;;;;;1513472;77;744;-68
2022/06/09 08:45:10;;;;;;;;;;;24.30;45.30;;;;;;1514235;77;1787;-68
2022/06/09 08:47:13;;;;;;;;;;;24.30;45.30;;;;;;1512540;77;1922;-68
2022/06/09 08:49:32;;;;;;;;;;;24.30;45.30;;;;;;1515535;77;1789;-69
2022/06/09 08:51:42;;;;;;;;;;;24.30;45.30;;;;;;1506577;77;663;-68
2022/06/09 08:53:48;;;;;;;;;;;24.30;45.30;;;;;;1511069;77;1705;-68
2022/06/09 08:55:51;;;;;;;;;;;24.30;45.30;;;;;;1511142;77;1800;-69
2022/06/09 08:57:54;;;;;;;;;;;24.20;45.20;;;;;;1512832;77;786;-69
2022/06/09 08:59:56;;;;;;;;;;;24.30;45.30;;;;;;1509271;77;774;-70
2022/06/09 09:01:59;;;;;;;;;;;24.30;45.30;;;;;;1515389;77;614;-68
2022/06/09 09:04:02;;;;;;;;;;;24.30;45.30;;;;;;1506106;77;1460;-68
2022/06/09 09:06:11;;;;;;;;;;;24.30;45.20;;;;;;1506909;77;1945;-68
2022/06/09 09:08:09;;;;;;;;;;;24.30;45.20;;;;;;1513498;77;983;-69
2022/06/09 09:10:31;;;;;;;;;;;24.30;45.20;;;;;;1526029;77;575;-67
2022/06/09 09:12:37;;;;;;;;;;;24.20;45.10;;;;;;1521816;77;769;-66
2022/06/09 09:14:55;;;;;;;;;;;24.30;45.20;;;;;;1516844;77;1158;-69
2022/06/09 09:17:04;;;;;;;;;;;24.30;45.20;;;;;;1512658;77;698;-68
2022/06/09 09:19:08;;;;;;;;;;;24.20;45.10;;;;;;1521184;77;1810;-68
2022/06/09 09:21:24;;;;;;;;;;;24.20;45.10;;;;;;1513889;77;1809;-68
2022/06/09 09:23:33;;;;;;;;;;;24.30;45.20;;;;;;1525275;77;611;-68
2022/06/09 09:25:49;;;;;;;;;;;24.30;45.20;;;;;;1519409;77;1178;-68
2022/06/09 09:27:56;;;;;;;;;;;24.20;45.20;;;;;;1518697;77;1954;-67
2022/06/09 09:29:59;;;;;;;;;;;24.30;45.30;;;;;;1523756;77;760;-68
2022/06/09 09:32:06;;;;;;;;;;;24.30;45.30;;;;;;1522631;77;1517;-65
2022/06/09 09:34:09;;;;;;;;;;;24.30;45.30;;;;;;1513615;77;960;-68
2022/06/09 09:36:19;;;;;;;;;;;24.30;45.20;;;;;;1519415;77;1154;-68
2022/06/09 09:38:20;;;;;;;;;;;24.30;45.20;;;;;;1509401;77;1747;-69
2022/06/09 09:40:30;;;;;;;;;;;24.30;45.20;;;;;;1516409;77;780;-68
2022/06/09 09:42:33;;;;;;;;;;;24.30;45.20;;;;;;1515268;77;833;-69
2022/06/09 09:44:35;;;;;;;;;;;24.20;45.10;;;;;;1525180;77;1136;-68
2022/06/09 09:46:37;;;;;;;;;;;24.20;45.10;;;;;;1516967;77;1938;-69
2022/06/09 09:48:40;;;;;;;;;;;24.20;45.10;;;;;;1506392;77;735;-69
2022/06/09 09:50:50;;;;;;;;;;;24.20;45.10;;;;;;1504248;77;659;-68
2022/06/09 09:52:56;;;;;;;;;;;24.20;45.10;;;;;;1501397;77;738;-67
2022/06/09 09:54:58;;;;;;;;;;;24.30;45.20;;;;;;1501918;77;1621;-66
2022/06/09 09:57:06;;;;;;;;;;;24.30;45.20;;;;;;1514562;77;721;-68
2022/06/09 09:59:12;;;;;;;;;;;24.30;45.20;;;;;;1511177;77;1713;-67
2022/06/09 10:01:24;;;;;;;;;;;24.30;45.20;;;;;;1505448;77;1699;-67
2022/06/09 10:08:37;;;;;;;;;;;24.30;45.10;;;;;;1507936;77;1647;-69
2022/06/09 10:10:39;;;;;;;;;;;24.30;45.10;;;;;;1500175;77;632;-69
2022/06/09 10:12:40;;;;;;;;;;;24.30;45.10;;;;;;1499740;77;741;-68
2022/06/09 10:14:44;;;;;;;;;;;24.40;45.00;;;;;;1508961;77;1602;-70
2022/06/09 10:16:47;;;;;;;;;;;24.30;45.10;;;;;;1509272;77;884;-68
2022/06/09 10:18:51;;;;;;;;;;;24.30;45.10;;;;;;1503680;77;1734;-69
2022/06/09 10:20:54;;;;;;;;;;;24.30;45.10;;;;;;1510770;77;740;-69
2022/06/09 10:23:01;;;;;;;;;;;24.30;45.00;;;;;;1504323;77;741;-68
2022/06/09 10:25:04;;;;;;;;;;;24.30;45.00;;;;;;1507157;77;1093;-69
2022/06/09 10:27:06;;;;;;;;;;;24.30;45.00;;;;;;1505291;77;1938;-68
2022/06/09 10:29:10;;;;;;;;;;;24.30;45.00;;;;;;1505640;77;1474;-68
2022/06/09 10:31:16;;;;;;;;;;;24.30;45.00;;;;;;1503664;77;1222;-69
2022/06/09 10:33:22;;;;;;;;;;;24.30;45.00;;;;;;1462752;77;1144;-69
2022/06/09 10:35:29;;;;;;;;;;;24.30;45.00;;;;;;1513945;77;1193;-71
2022/06/09 10:37:32;;;;;;;;;;;24.40;44.90;;;;;;1513615;77;1993;-70
2022/06/09 10:39:36;;;;;;;;;;;24.30;44.90;;;;;;1509493;77;724;-70
2022/06/09 10:41:42;;;;;;;;;;;24.40;44.90;;;;;;1515109;77;1073;-70
2022/06/09 10:43:46;;;;;;;;;;;24.40;44.90;;;;;;1514120;77;809;-67
2022/06/09 10:45:56;;;;;;;;;;;24.40;44.90;;;;;;1503947;77;1146;-66
2022/06/09 10:55:24;;;;;;;;;;;24.30;44.90;;;;;;1508505;77;1690;-68
2022/06/09 10:57:27;;;;;;;;;;;24.30;44.90;;;;;;1511627;77;1568;-67
2022/06/09 10:59:37;;;;;;;;;;;24.40;44.90;;;;;;1506901;77;827;-67
2022/06/09 11:01:39;;;;;;;;;;;24.40;44.90;;;;;;1508984;77;931;-68
2022/06/09 11:03:42;;;;;;;;;;;24.40;44.90;;;;;;1497815;77;713;-64
2022/06/09 11:05:48;;;;;;;;;;;24.40;44.90;;;;;;1512582;77;1150;-69
2022/06/09 11:07:55;;;;;;;;;;;24.40;44.80;;;;;;1509303;77;1923;-72
2022/06/09 11:10:10;;;;;;;;;;;24.30;44.80;;;;;;1505679;77;1496;-69
2022/06/09 11:12:20;;;;;;;;;;;24.40;44.90;;;;;;1503337;78;950;-68
2022/06/09 11:14:35;;;;;;;;;;;24.30;44.90;;;;;;1508568;77;736;-69
2022/06/09 11:16:45;;;;;;;;;;;24.30;44.90;;;;;;1502524;77;1554;-69
2022/06/09 11:18:51;;;;;;;;;;;24.30;45.00;;;;;;1503229;77;758;-70
2022/06/09 11:21:12;;;;;;;;;;;24.30;44.90;;;;;;1509445;77;1644;-67
2022/06/09 11:23:21;;;;;;;;;;;24.30;45.00;;;;;;1497149;77;818;-67
2022/06/09 11:25:28;;;;;;;;;;;24.30;44.90;;;;;;1500747;77;1508;-69
2022/06/09 11:27:34;;;;;;;;;;;24.30;44.90;;;;;;1507614;77;2008;-68
2022/06/09 11:29:47;;;;;;;;;;;24.30;44.90;;;;;;1504411;77;1361;-67
2022/06/09 11:31:52;;;;;;;;;;;24.40;44.90;;;;;;1506477;77;771;-66
2022/06/09 11:33:55;;;;;;;;;;;24.30;44.80;;;;;;1501854;77;1705;-68
2022/06/09 11:36:15;;;;;;;;;;;24.30;44.80;;;;;;1500949;77;1855;-68
2022/06/09 11:38:19;;;;;;;;;;;24.40;44.80;;;;;;1504026;77;1490;-68
2022/06/09 11:40:23;;;;;;;;;;;24.40;44.70;;;;;;1513969;77;1940;-67
2022/06/09 11:42:43;;;;;;;;;;;24.40;44.70;;;;;;1516987;77;807;-67
2022/06/09 11:44:45;;;;;;;;;;;24.40;44.70;;;;;;1515010;77;1185;-68
2022/06/09 11:46:49;;;;;;;;;;;24.40;44.60;;;;;;1507752;77;1927;-70
2022/06/09 11:48:52;;;;;;;;;;;24.40;44.70;;;;;;1515104;77;803;-67
2022/06/09 11:50:53;;;;;;;;;;;24.40;44.60;;;;;;1509466;77;810;-68
2022/06/09 11:52:56;;;;;;;;;;;24.40;44.70;;;;;;1508892;77;1584;-69
2022/06/09 11:55:00;;;;;;;;;;;24.40;44.60;;;;;;1507139;77;1397;-66
2022/06/09 11:57:19;;;;;;;;;;;24.40;44.60;;;;;;1519066;78;771;-67
2022/06/09 11:59:22;;;;;;;;;;;24.40;44.60;;;;;;1513715;77;767;-67
2022/06/09 12:01:25;;;;;;;;;;;24.40;44.60;;;;;;1509252;77;736;-68
2022/06/09 12:03:32;;;;;;;;;;;24.40;44.60;;;;;;1507701;77;1385;-69
2022/06/09 12:05:38;;;;;;;;;;;24.40;44.50;;;;;;1513854;77;1153;-68
2022/06/09 12:07:53;;;;;;;;;;;24.50;44.60;;;;;;1517545;77;1921;-68
2022/06/09 12:10:13;;;;;;;;;;;24.40;44.50;;;;;;1518262;77;739;-68
2022/06/09 12:12:35;;;;;;;;;;;24.30;44.50;;;;;;1516453;77;621;-68
2022/06/09 12:14:37;;;;;;;;;;;24.40;44.50;;;;;;1503819;77;1082;-68
2022/06/09 12:16:41;;;;;;;;;;;24.40;44.50;;;;;;1514849;77;808;-67
2022/06/09 12:18:59;;;;;;;;;;;24.40;44.60;;;;;;1516416;77;782;-68
2022/06/09 12:21:12;;;;;;;;;;;24.40;44.50;;;;;;1510766;77;1473;-68
2022/06/09 12:23:21;;;;;;;;;;;24.40;44.60;;;;;;1516465;77;1668;-67
2022/06/09 12:25:24;;;;;;;;;;;24.40;44.60;;;;;;1498221;77;1151;-66
2022/06/09 12:27:37;;;;;;;;;;;24.40;44.70;;;;;;1497824;77;1925;-68
2022/06/09 12:29:40;;;;;;;;;;;24.40;44.60;;;;;;1501672;77;703;-68
2022/06/09 12:31:42;;;;;;;;;;;24.50;44.70;;;;;;1508215;77;757;-67
2022/06/09 12:33:46;;;;;;;;;;;24.50;44.60;;;;;;1485791;79;1274;-68
2022/06/09 12:35:52;;;;;;;;;;;24.50;44.70;;;;;;1505913;77;1598;-69
2022/06/09 12:37:58;;;;;;;;;;;24.50;44.70;;;;;;1511119;77;810;-68
2022/06/09 12:40:01;;;;;;;;;;;24.40;44.70;;;;;;1513652;77;635;-68
2022/06/09 12:42:05;;;;;;;;;;;24.40;44.70;;;;;;1516163;77;814;-68